createdAt,value
2022-11-07T00:05:02.807Z,7.60
2022-11-07T00:10:06.668Z,7.22
2022-11-07T00:15:10.133Z,7.10
2022-11-07T00:20:14.351Z,7.25
2022-11-07T00:25:17.253Z,5.38
2022-11-07T00:30:19.965Z,6.60
2022-11-07T00:35:24.226Z,7.13
2022-11-07T00:40:27.016Z,4.75
2022-11-07T00:45:29.860Z,6.63
2022-11-07T00:50:34.039Z,6.45
2022-11-07T00:55:37.106Z,6.95
2022-11-07T01:00:39.990Z,6.57
2022-11-07T01:05:44.089Z,6.85
2022-11-07T01:10:46.968Z,6.03
2022-11-07T01:15:49.681Z,6.30
2022-11-07T01:20:53.936Z,5.82
2022-11-07T01:25:56.672Z,4.35
2022-11-07T01:30:59.486Z,5.35
2022-11-07T01:36:06.051Z,5.47
2022-11-07T01:41:23.030Z,5.70
2022-11-07T01:46:29.039Z,5.82
2022-11-07T01:51:36.350Z,5.97
2022-11-07T01:56:42.727Z,6.15
2022-11-07T02:01:45.748Z,4.82
2022-11-07T02:06:55.400Z,5.43
2022-11-07T02:12:01.005Z,5.22
2022-11-07T02:17:04.219Z,5.72
2022-11-07T02:22:18.758Z,5.07
2022-11-07T02:27:26.592Z,4.18
2022-11-07T02:32:29.341Z,5.03
2022-11-07T02:37:35.360Z,5.18
2022-11-07T02:42:47.509Z,5.20
2022-11-07T02:47:50.242Z,5.40
2022-11-07T02:52:53.167Z,4.82
2022-11-07T02:57:57.166Z,4.55
2022-11-07T03:02:59.919Z,4.00
2022-11-07T03:08:02.728Z,5.05
2022-11-07T03:13:06.860Z,4.65
2022-11-07T03:18:09.743Z,3.60
2022-11-07T03:23:12.883Z,4.38
2022-11-07T03:28:17.238Z,3.75
2022-11-07T03:33:20.550Z,4.10
2022-11-07T03:38:23.289Z,3.83
2022-11-07T03:43:27.365Z,3.70
2022-11-07T03:48:30.144Z,2.80
2022-11-07T03:53:33.409Z,3.28
2022-11-07T03:58:37.629Z,3.63
2022-11-07T04:03:40.577Z,3.42
2022-11-07T04:08:43.229Z,3.50
2022-11-07T04:14:05.053Z,3.72
2022-11-07T04:19:07.842Z,3.17
2022-11-07T04:24:10.532Z,3.25
2022-11-07T04:29:14.515Z,3.58
2022-11-07T04:34:17.202Z,2.58
2022-11-07T04:39:19.836Z,3.22
2022-11-07T04:44:23.908Z,3.47
2022-11-07T04:49:26.632Z,2.80
2022-11-07T04:54:29.619Z,3.35
2022-11-07T04:59:33.555Z,3.10
2022-11-07T05:04:36.214Z,2.85
2022-11-07T05:09:38.854Z,2.92
2022-11-07T05:14:42.770Z,2.42
2022-11-07T05:19:45.452Z,2.30
2022-11-07T05:24:48.036Z,2.00
2022-11-07T05:29:52.127Z,2.30
2022-11-07T05:34:54.719Z,1.60
2022-11-07T05:39:57.321Z,2.30
2022-11-07T05:45:01.294Z,2.42
2022-11-07T05:50:03.926Z,2.42
2022-11-07T05:55:08.300Z,2.20
2022-11-07T06:00:14.163Z,2.25
2022-11-07T06:05:20.509Z,2.60
2022-11-07T06:10:27.057Z,2.42
2022-11-07T06:15:32.803Z,2.40
2022-11-07T06:20:36.071Z,2.33
2022-11-07T06:25:38.865Z,2.47
2022-11-07T06:30:43.494Z,2.05
2022-11-07T06:35:47.194Z,2.35
2022-11-07T06:40:49.777Z,1.87
2022-11-07T06:45:53.899Z,1.80
2022-11-07T06:50:58.195Z,1.83
2022-11-07T06:56:01.890Z,1.27
2022-11-07T07:01:08.652Z,2.13
2022-11-07T07:06:15.765Z,2.08
2022-11-07T07:11:18.686Z,1.88
2022-11-07T07:16:22.777Z,2.03
2022-11-07T07:21:26.032Z,2.13
2022-11-07T07:26:29.233Z,2.20
2022-11-07T07:31:33.704Z,2.00
2022-11-07T07:36:36.363Z,1.88
2022-11-07T07:41:40.338Z,2.20
2022-11-07T07:46:44.574Z,2.20
2022-11-07T07:51:50.883Z,1.73
2022-11-07T07:56:53.711Z,2.03
2022-11-07T08:02:09.460Z,1.85
2022-11-07T08:07:12.338Z,2.00
2022-11-07T08:12:15.137Z,2.22
2022-11-07T08:17:19.472Z,1.70
2022-11-07T08:22:22.218Z,1.25
2022-11-07T08:27:25.303Z,1.95
2022-11-07T08:32:29.828Z,1.77
2022-11-07T08:42:46.680Z,1.90
2022-11-07T08:47:57.182Z,1.90
2022-11-07T08:53:02.983Z,1.52
2022-11-07T08:58:07.715Z,1.80
2022-11-07T09:08:51.948Z,1.60
2022-11-07T09:13:55.550Z,1.33
2022-11-07T09:18:59.870Z,1.67
2022-11-07T09:24:06.718Z,1.23
2022-11-07T09:29:09.992Z,1.20
2022-11-07T09:34:14.134Z,1.02
2022-11-07T09:39:16.810Z,1.35
2022-11-07T09:44:40.092Z,1.25
2022-11-07T09:49:51.810Z,1.15
2022-11-07T09:55:00.201Z,1.42
2022-11-07T10:00:11.136Z,1.50
2022-11-07T10:05:20.336Z,1.20
2022-11-07T10:10:28.450Z,1.30
2022-11-07T10:15:47.884Z,1.15
2022-11-07T10:21:31.060Z,1.20
2022-11-07T10:26:48.503Z,0.90
2022-11-07T10:31:57.938Z,1.23
2022-11-07T10:37:30.621Z,1.10
2022-11-07T10:42:41.142Z,0.90
2022-11-07T10:47:44.397Z,1.00
2022-11-07T10:52:56.997Z,1.08
2022-11-07T10:58:05.714Z,1.10
2022-11-07T11:03:18.086Z,1.00
2022-11-07T11:08:32.307Z,0.75
2022-11-07T11:13:35.996Z,1.05
2022-11-07T11:18:41.801Z,0.90
2022-11-07T11:24:07.708Z,0.90
2022-11-07T11:29:15.966Z,0.77
2022-11-07T11:34:23.740Z,1.25
2022-11-07T11:39:42.936Z,1.02
2022-11-07T11:44:46.911Z,0.98
2022-11-07T11:49:54.617Z,1.20
2022-11-07T11:55:04.775Z,1.63
2022-11-07T12:00:14.836Z,1.10
2022-11-07T12:05:27.625Z,0.80
2022-11-07T12:10:49.605Z,0.70
2022-11-07T12:16:36.704Z,1.00
2022-11-07T12:21:55.287Z,0.90
2022-11-07T12:27:27.093Z,0.85
2022-11-07T12:34:03.507Z,1.50
2022-11-07T12:39:48.551Z,1.20
2022-11-07T12:45:25.025Z,0.90
2022-11-07T12:57:11.378Z,0.98
2022-11-07T13:08:41.757Z,1.10
2022-11-07T13:14:24.409Z,1.08
2022-11-07T13:19:51.662Z,1.00
2022-11-07T13:25:33.901Z,0.82
2022-11-07T13:30:50.812Z,1.00
2022-11-07T13:36:04.940Z,0.70
2022-11-07T13:41:09.310Z,0.75
2022-11-07T13:51:54.004Z,1.20
2022-11-07T13:57:01.625Z,1.13
2022-11-07T14:02:53.836Z,0.73
2022-11-07T14:08:38.060Z,0.80
2022-11-07T14:13:57.369Z,0.90
2022-11-07T14:19:04.864Z,1.00
2022-11-07T14:24:50.455Z,0.75
2022-11-07T14:30:10.830Z,1.08
2022-11-07T14:36:12.782Z,1.05
2022-11-07T14:53:39.046Z,1.03
2022-11-07T14:58:43.194Z,1.02
2022-11-07T15:03:54.898Z,1.30
2022-11-07T15:09:00.029Z,1.67
2022-11-07T15:14:07.815Z,1.38
2022-11-07T15:19:18.963Z,1.38
2022-11-07T15:24:38.672Z,1.23
2022-11-07T15:29:52.067Z,1.05
2022-11-07T15:35:23.165Z,1.25
2022-11-07T15:40:20.180Z,1.35
2022-11-07T15:45:24.732Z,1.10
2022-11-07T15:50:27.441Z,1.15
2022-11-07T15:55:30.128Z,1.30
2022-11-07T16:00:34.549Z,1.20
2022-11-07T16:10:45.636Z,1.13
2022-11-07T16:15:51.493Z,1.20
2022-11-07T16:20:54.509Z,0.93
2022-11-07T16:25:57.160Z,1.08
2022-11-07T16:31:03.065Z,1.20
2022-11-07T16:36:19.179Z,1.33
2022-11-07T16:41:22.224Z,1.30
2022-11-07T16:46:29.504Z,1.83
2022-11-07T16:51:33.029Z,1.90
2022-11-07T16:56:36.628Z,2.07
2022-11-07T17:01:40.710Z,1.77
2022-11-07T17:06:47.375Z,1.65
2022-11-07T17:11:50.037Z,1.73
2022-11-07T17:16:54.082Z,1.65
2022-11-07T17:21:56.696Z,1.63
2022-11-07T17:26:59.904Z,2.03
2022-11-07T17:32:03.780Z,2.88
2022-11-07T17:37:06.632Z,3.88
2022-11-07T17:42:09.826Z,3.10
2022-11-07T17:47:28.566Z,2.78
2022-11-07T17:52:31.471Z,1.80
2022-11-07T17:57:34.199Z,2.00
2022-11-07T18:02:38.328Z,2.85
2022-11-07T18:07:41.143Z,3.90
2022-11-07T18:12:44.454Z,4.13
2022-11-07T18:17:48.411Z,4.53
2022-11-07T18:22:53.297Z,2.40
2022-11-07T18:27:55.886Z,3.67
2022-11-07T18:32:59.992Z,1.95
2022-11-07T18:38:02.538Z,1.67
2022-11-07T18:43:05.080Z,1.40
2022-11-07T18:48:09.054Z,1.73
2022-11-07T18:53:11.747Z,1.58
2022-11-07T18:58:14.640Z,1.30
2022-11-07T19:03:18.957Z,1.88
2022-11-07T19:08:21.757Z,1.50
2022-11-07T19:13:24.947Z,1.42
2022-11-07T19:18:28.834Z,1.55
2022-11-07T19:23:31.458Z,1.55
2022-11-07T19:28:34.521Z,1.85
2022-11-07T19:33:38.489Z,1.58
2022-11-07T19:38:41.250Z,2.00
2022-11-07T19:43:50.073Z,1.58
2022-11-07T19:48:56.467Z,1.13
2022-11-07T19:54:00.774Z,2.42
2022-11-07T19:59:03.746Z,0.93
2022-11-07T20:04:08.844Z,2.00
2022-11-07T20:09:13.842Z,1.88
2022-11-07T20:14:16.740Z,1.70
2022-11-07T20:19:20.686Z,1.55
2022-11-07T20:24:23.311Z,2.08
2022-11-07T20:29:25.947Z,2.00
2022-11-07T20:34:30.141Z,2.03
2022-11-07T20:39:32.819Z,1.27
2022-11-07T20:44:35.974Z,1.98
2022-11-07T20:49:42.346Z,1.77
2022-11-07T20:54:45.040Z,1.60
2022-11-07T20:59:47.710Z,1.60
2022-11-07T21:05:16.104Z,1.65
2022-11-07T21:15:18.265Z,1.45
2022-11-07T21:20:22.256Z,1.67
2022-11-07T21:25:25.101Z,1.90
2022-11-07T21:30:27.767Z,1.60
2022-11-07T21:35:33.752Z,1.67
2022-11-07T21:40:38.585Z,1.75
2022-11-07T21:45:41.273Z,2.65
2022-11-07T21:50:45.718Z,2.13
2022-11-07T22:00:50.929Z,1.90
2022-11-07T22:05:55.153Z,2.13
2022-11-07T22:10:59.660Z,1.73
2022-11-07T22:21:08.296Z,1.80
2022-11-07T22:26:13.170Z,1.90
2022-11-07T22:31:17.848Z,2.00
2022-11-07T22:36:22.515Z,1.98
2022-11-07T22:41:27.024Z,1.80
2022-11-07T22:46:31.535Z,1.83
2022-11-07T22:56:38.924Z,1.30
2022-11-07T23:01:43.197Z,1.52
2022-11-07T23:06:47.194Z,1.42
2022-11-07T23:11:51.127Z,1.58
2022-11-07T23:16:56.091Z,2.47
2022-11-07T23:22:01.018Z,2.08
2022-11-07T23:27:03.698Z,1.50
2022-11-07T23:32:06.320Z,1.60
2022-11-07T23:37:13.842Z,1.90
2022-11-07T23:42:16.391Z,1.60
2022-11-07T23:47:36.845Z,1.58
2022-11-07T23:52:40.772Z,2.15
2022-11-07T23:57:57.291Z,1.65
